Airfield :
LOGIN :

Register | Disclaimer

   EN    FR    IT 

 










Legend :    VFR   Marginal VFR   IFR   Intensive IFR   Very Intensive IFR
Visi :
Ceiling :
>= 8 km
>= 3000ft
5 to 8 km
1000 to 3000 ft
1500m to 5 km
500 to 1000 ft
800 to 1500m
200 to 500 ft
< 800m
< 200 ft
Symbols :   Thunderstorms  Fog  Heavy snow  Heavy precipitations  Wind > 20 kt
SIGMETs :     Misc.  Thunderstorms  Icing  Turbulence  Mountain Waves  Volcanic Ashes







- Airport Elevation : 782 ft
- IATA code : BGY


LIME - Orio al Serio International - Bergamo

CURRENT METAR :
  • 220020Z 03007KT 9999 SCT045 BKN080 21/17 Q1013 NOSIG

EXPIRED METARs :
  • 212350Z 04009G19KT 9999 SCT045 BKN080 21/17 Q1013 NOSIG
  • 212320Z 07012G23KT 040V100 9999 VCTS FEW045CB BKN080 20/17 Q1013 RETS NOSIG
  • 212250Z 08008KT 040V120 9999 -TSRA SCT060CB BKN080 20/18 Q1013 RERA BECMG NSW
  • 212220Z 04009KT 9999 -TSRA SCT050CB BKN080 21/19 Q1013 RERA BECMG NSW
  • 212150Z 02010KT 9999 -RA TS SCT050CB BKN080 20/19 Q1013 RESHRA NOSIG

TAF TAF LIME
Valid from the 22 at 00:00 until the 23 at 00:00 UTC


212300Z 2200/2224 VRB05KT 9999 SCT050
TEMPO 2200/2202 4000 TSRA
TEMPO 2221/2224 4000 TSRA
No reported NOTAMs for that airfield.



MET'MAP, your aeronautical weather chart ! - Copyright ORBIFLY December 2007 - Disclaimer

ORBIFLY MET'MAP TEAM :

Programming & Development : Alexandra Zaïnal
Concept & Development : Baudouin d'Aumeries
Co-Development & Prog : Marc-Olivier Méhu
Technical & hardware support : Manuel Goepfert

Contact : metmap@orbifly.com




SOURCES & CREDITS :

   NOAA